Time;durP1;ratioP1;P1;durP2;ratioP2;P2;SDS_P1;SDS_P2;PMS_P1;PMS_P2;Temp;Humidity;BMP_temperature;BMP_pressure;BME280_temperature;BME280_humidity;BME280_pressure;Samples;Min_cycle;Max_cycle;Signal;HPM_P1;HPM_P2
2022/09/02 00:04:51;;;;;;;3.85;0.77;;;16.60;85.00;;;14.93;61.88;100229.59;10339748;28;96638;-91
2022/09/02 00:09:54;;;;;;;0.90;0.40;;;16.60;85.20;;;14.95;61.38;100232.94;10341430;28;97244;-91
2022/09/02 00:14:57;;;;;;;2.97;0.47;;;16.60;85.20;;;14.99;61.38;100236.84;10342162;28;96997;-91
2022/09/02 00:20:00;;;;;;;2.22;0.65;;;16.60;85.40;;;15.03;61.72;100223.91;10355413;28;97141;-91
2022/09/02 00:25:03;;;;;;;0.90;0.50;;;16.70;85.50;;;15.09;60.97;100223.97;10330132;28;97025;-90
2022/09/02 00:30:06;;;;;;;3.10;0.47;;;16.70;83.60;;;15.15;60.10;100219.66;10356808;28;96663;-91
2022/09/02 00:35:10;;;;;;;1.63;0.60;;;16.80;83.50;;;15.20;60.00;100212.69;10356311;28;96879;-91
2022/09/02 00:40:14;;;;;;;1.55;0.47;;;16.90;83.30;;;15.23;60.68;100206.13;10340678;28;96639;-91
2022/09/02 00:45:20;;;;;;;0.65;0.50;;;16.90;83.00;;;15.27;58.44;100213.56;10338423;28;96620;-91
2022/09/02 00:50:31;;;;;;;16.77;0.85;;;16.90;81.10;;;15.34;58.01;100210.09;10316526;28;96735;-91
2022/09/02 00:55:43;;;;;;;1.23;0.50;;;17.00;81.20;;;15.38;58.46;100206.00;10357581;28;96576;-90
2022/09/02 01:00:51;;;;;;;2.58;0.70;;;17.10;81.00;;;15.42;57.45;100202.72;10350401;28;96616;-91
2022/09/02 01:05:56;;;;;;;2.67;0.50;;;17.10;80.10;;;15.44;57.72;100203.34;10354073;28;96682;-91
2022/09/02 01:11:00;;;;;;;1.48;0.47;;;17.10;79.90;;;15.50;56.66;100207.91;10349106;28;97322;-91
2022/09/02 01:16:09;;;;;;;1.17;0.50;;;17.20;78.20;;;15.53;56.47;100204.84;10355833;28;96546;-92
2022/09/02 01:21:13;;;;;;;1.45;0.47;;;17.20;78.00;;;15.56;55.83;100197.44;10375992;28;97143;-91
2022/09/02 01:26:16;;;;;;;1.42;0.47;;;17.30;77.20;;;15.61;55.22;100198.47;10348559;28;96568;-91
2022/09/02 01:31:19;;;;;;;2.47;0.50;;;17.30;76.30;;;15.64;54.92;100192.72;10339428;28;97448;-92
2022/09/02 01:36:21;;;;;;;6.30;0.77;;;17.30;75.80;;;15.65;54.52;100204.28;10337519;28;96521;-91
2022/09/02 01:41:24;;;;;;;4.03;0.70;;;17.40;75.80;;;15.67;54.95;100202.25;10314920;28;96471;-92
2022/09/02 01:46:27;;;;;;;23.45;2.45;;;17.30;75.40;;;15.70;54.56;100204.50;10350981;28;98880;-92
2022/09/02 01:51:30;;;;;;;1.05;0.40;;;17.40;75.30;;;15.68;54.29;100199.34;10338687;28;96737;-91
2022/09/02 01:56:34;;;;;;;9.82;1.00;;;17.40;74.80;;;15.69;54.56;100208.22;10350057;28;98568;-92
2022/09/02 02:01:36;;;;;;;1.65;0.60;;;17.40;74.80;;;15.65;54.63;100198.91;10340320;28;96698;-91
2022/09/02 02:06:47;;;;;;;1.95;0.70;;;17.40;75.00;;;15.63;54.24;100198.31;10355609;28;96644;-91
2022/09/02 02:11:54;;;;;;;48.22;3.25;;;17.40;74.20;;;15.52;54.47;100199.66;10337242;28;96898;-91
2022/09/02 02:16:57;;;;;;;0.90;0.47;;;17.30;74.40;;;15.49;54.16;100200.09;10337026;28;98102;-91
2022/09/02 02:22:00;;;;;;;22.80;1.55;;;17.20;73.80;;;15.45;54.36;100199.63;10353259;28;96850;-91
2022/09/02 02:27:03;;;;;;;0.70;0.38;;;17.20;73.50;;;15.45;54.65;100190.78;10355235;28;97216;-92
2022/09/02 02:32:06;;;;;;;0.55;0.38;;;17.10;73.70;;;15.46;53.96;100192.44;10337287;28;96627;-91
2022/09/02 02:37:11;;;;;;;4.13;0.43;;;17.20;74.00;;;15.45;54.98;100182.75;10352911;28;96747;-91
2022/09/02 02:42:15;;;;;;;1.63;0.47;;;17.20;73.80;;;15.41;54.64;100181.50;10339040;28;97894;-91
2022/09/02 02:47:18;;;;;;;15.25;1.20;;;17.20;74.00;;;15.44;54.00;100186.47;10338603;28;96595;-91
2022/09/02 02:52:21;;;;;;;0.50;0.32;;;17.20;73.40;;;15.40;54.00;100182.53;10343405;28;97538;-90
2022/09/02 02:57:24;;;;;;;15.48;1.30;;;17.20;73.90;;;15.43;54.54;100182.13;10360673;28;99115;-91
2022/09/02 03:02:32;;;;;;;3.70;1.10;;;17.20;73.50;;;15.47;54.90;100194.06;10359998;28;96691;-91
2022/09/02 03:07:36;;;;;;;3.05;0.60;;;17.20;73.20;;;15.45;53.91;100188.09;10344979;28;96566;-91
2022/09/02 03:12:39;;;;;;;7.30;0.90;;;17.20;73.10;;;15.52;53.48;100187.09;10375975;28;96682;-91
2022/09/02 03:17:44;;;;;;;3.92;0.70;;;17.20;72.90;;;15.55;53.90;100183.22;10341780;28;96871;-91
2022/09/02 03:22:49;;;;;;;6.75;4.00;;;17.30;72.70;;;15.56;53.39;100184.03;10357161;28;97705;-92
2022/09/02 03:27:52;;;;;;;9.27;1.35;;;17.30;72.30;;;15.57;52.89;100181.16;10343232;28;97384;-91
2022/09/02 03:32:58;;;;;;;2.78;0.52;;;17.30;72.00;;;15.62;52.81;100186.75;10360284;28;96708;-91
2022/09/02 03:38:07;;;;;;;2.72;0.60;;;17.30;71.90;;;15.65;52.58;100186.38;10359626;28;96589;-91
2022/09/02 03:43:11;;;;;;;1.52;0.30;;;17.40;72.10;;;15.67;53.60;100183.50;10359195;28;97144;-90
2022/09/02 03:48:14;;;;;;;0.80;0.40;;;17.40;72.30;;;15.68;53.54;100185.97;10358541;28;98628;-91
2022/09/02 03:53:17;;;;;;;2.45;0.75;;;17.40;71.90;;;15.66;53.70;100177.31;10356661;28;97844;-91
2022/09/02 03:58:22;;;;;;;0.93;0.40;;;17.40;72.10;;;15.65;53.02;100185.53;10356874;28;96794;-90
2022/09/02 04:03:26;;;;;;;1.10;0.50;;;17.40;71.70;;;15.65;53.09;100188.19;10340605;28;98695;-91
2022/09/02 04:08:29;;;;;;;2.47;0.40;;;17.40;71.50;;;15.60;52.56;100180.75;10355617;28;98327;-90
2022/09/02 04:13:33;;;;;;;2.88;0.60;;;17.30;70.70;;;15.61;52.88;100190.44;10318273;28;96749;-88
2022/09/02 04:18:36;;;;;;;0.93;0.28;;;17.30;71.10;;;15.58;52.63;100180.13;10328193;28;96676;-88
2022/09/02 04:23:39;;;;;;;2.05;0.75;;;17.30;71.50;;;15.50;53.22;100185.66;10356560;28;96530;-88
2022/09/02 04:28:42;;;;;;;7.25;3.85;;;17.20;71.50;;;15.46;53.04;100189.75;10357938;28;96558;-88
2022/09/02 04:33:46;;;;;;;2.58;1.33;;;17.20;71.50;;;15.39;53.49;100192.41;10341698;28;96763;-88
2022/09/02 04:38:49;;;;;;;3.85;1.08;;;17.10;71.40;;;15.36;54.32;100200.84;10355113;28;97585;-87
2022/09/02 04:43:56;;;;;;;5.63;1.17;;;17.00;71.80;;;15.27;52.91;100186.78;10352143;28;96690;-87
2022/09/02 04:48:59;;;;;;;2.40;1.05;;;17.00;71.60;;;15.29;53.59;100199.16;10353631;28;96694;-86
2022/09/02 04:54:02;;;;;;;1.48;0.70;;;17.00;72.10;;;15.27;53.74;100194.00;10353958;28;96477;-87
2022/09/02 04:59:06;;;;;;;3.90;0.88;;;16.90;71.80;;;15.27;53.18;100194.00;10355720;28;96689;-87
2022/09/02 05:04:09;;;;;;;4.30;0.90;;;16.90;71.70;;;15.34;53.62;100200.22;10373245;28;96468;-87
2022/09/02 05:09:12;;;;;;;2.08;0.60;;;17.00;72.00;;;15.39;53.28;100199.63;10355331;28;96654;-87
2022/09/02 05:14:15;;;;;;;4.00;0.75;;;17.00;71.70;;;15.43;53.33;100196.34;10340688;28;96606;-87
2022/09/02 05:19:20;;;;;;;13.23;1.58;;;17.10;71.80;;;15.50;54.13;100205.22;10340409;28;96476;-87
2022/09/02 05:24:24;;;;;;;1.50;0.70;;;17.10;73.20;;;15.57;54.96;100193.72;10356068;28;96637;-87
2022/09/02 05:29:28;;;;;;;1.20;0.50;;;17.20;74.60;;;15.61;54.86;100200.34;10353943;28;96785;-87
2022/09/02 05:34:32;;;;;;;1.63;0.60;;;17.20;74.90;;;15.67;55.53;100197.72;10355160;28;96483;-87
2022/09/02 05:39:35;;;;;;;2.15;0.60;;;17.30;75.30;;;15.76;55.77;100201.03;10337584;28;96707;-87
2022/09/02 05:44:38;;;;;;;1.17;0.68;;;17.40;75.60;;;15.83;54.85;100184.97;10353843;28;96547;-87
2022/09/02 05:49:41;;;;;;;0.82;0.45;;;17.50;75.20;;;15.94;54.40;100192.41;10339270;28;96477;-87
2022/09/02 05:54:44;;;;;;;2.55;0.70;;;17.50;76.00;;;16.05;53.75;100199.84;10365499;28;97585;-87
2022/09/02 05:59:51;;;;;;;1.38;0.57;;;17.60;75.90;;;16.15;53.94;100189.56;10338814;28;96583;-87
2022/09/02 06:04:55;;;;;;;3.78;1.85;;;17.70;75.20;;;16.27;54.27;100192.47;10371772;28;96539;-87
2022/09/02 06:09:57;;;;;;;4.82;0.70;;;17.90;75.70;;;16.38;53.99;100185.69;10371026;28;96669;-87
2022/09/02 06:15:01;;;;;;;2.38;0.60;;;18.00;75.60;;;16.50;52.73;100186.72;10338746;28;96691;-85
2022/09/02 06:20:05;;;;;;;6.65;0.60;;;18.10;74.00;;;16.63;51.72;100200.13;10344529;28;96874;-88
2022/09/02 06:25:08;;;;;;;7.72;0.80;;;18.20;72.50;;;16.70;51.67;100195.59;10359697;28;96602;-87
2022/09/02 06:30:12;;;;;;;5.55;1.13;;;18.30;71.80;;;16.82;52.19;100206.53;10343964;28;97454;-87
2022/09/02 06:35:15;;;;;;;4.70;0.80;;;18.40;72.60;;;16.93;51.48;100194.34;10361189;28;96460;-87
2022/09/02 06:40:18;;;;;;;7.97;1.27;;;18.50;71.70;;;17.02;50.15;100187.69;10343025;28;96501;-85
2022/09/02 06:45:23;;;;;;;10.73;0.88;;;18.70;70.60;;;17.09;49.16;100194.72;10377226;28;98379;-87
2022/09/02 06:50:26;;;;;;;9.15;0.90;;;18.70;68.80;;;17.20;49.42;100192.41;10361040;28;96431;-86
2022/09/02 06:55:29;;;;;;;6.35;1.15;;;18.80;69.10;;;17.31;49.87;100191.75;10344648;28;96809;-87
2022/09/02 07:00:34;;;;;;;5.72;0.55;;;18.90;69.30;;;17.39;48.83;100191.50;10360887;28;97500;-87
2022/09/02 07:05:38;;;;;;;1.30;0.52;;;19.00;68.50;;;17.53;49.92;100189.59;10360116;28;97499;-87
2022/09/02 07:10:41;;;;;;;7.82;0.60;;;19.20;69.00;;;17.60;47.88;100198.47;10376986;28;96559;-87
2022/09/02 07:15:44;;;;;;;5.30;0.70;;;19.20;67.00;;;17.67;48.28;100196.56;10343527;28;96986;-87
2022/09/02 07:20:47;;;;;;;10.93;1.63;;;19.30;67.00;;;17.76;48.32;100186.44;10374983;28;96932;-87
2022/09/02 07:25:50;;;;;;;1.23;0.60;;;19.50;67.00;;;17.87;48.05;100189.25;10358376;28;96667;-88
2022/09/02 07:30:54;;;;;;;3.90;0.57;;;19.50;66.80;;;17.91;47.82;100186.94;10336916;28;96626;-87
2022/09/02 07:36:05;;;;;;;20.92;1.30;;;19.60;66.60;;;17.98;48.19;100186.91;10360183;28;96516;-86
2022/09/02 07:41:14;;;;;;;3.72;1.17;;;19.60;67.10;;;18.07;47.82;100191.81;10342523;28;98866;-88
2022/09/02 07:46:18;;;;;;;6.72;0.70;;;19.70;66.50;;;18.32;47.53;100188.34;10380276;28;97314;-86
2022/09/02 07:51:21;;;;;;;10.85;1.05;;;19.80;66.80;;;18.55;46.39;100193.13;10342022;28;96635;-86
2022/09/02 07:56:24;;;;;;;11.68;1.40;;;20.00;65.90;;;18.61;47.14;100187.69;10362718;28;96928;-85
2022/09/02 08:01:28;;;;;;;1.58;0.77;;;20.00;66.20;;;18.61;47.72;100184.16;10342421;28;96382;-85
2022/09/02 08:06:32;;;;;;;4.50;0.70;;;20.10;66.70;;;18.58;46.63;100188.09;10342582;28;96493;-87
2022/09/02 08:11:39;;;;;;;8.20;0.90;;;20.20;66.00;;;18.56;46.92;100187.50;10356364;28;96759;-87
2022/09/02 08:16:44;;;;;;;2.67;0.68;;;20.20;65.80;;;18.52;46.87;100194.38;10341880;28;96518;-87
2022/09/02 08:21:47;;;;;;;2.03;0.70;;;20.20;65.60;;;18.50;47.20;100187.56;10338579;28;97481;-87
2022/09/02 08:26:50;;;;;;;4.85;0.68;;;20.20;66.00;;;18.51;47.30;100186.53;10354366;28;96595;-87
2022/09/02 08:31:53;;;;;;;2.88;0.90;;;20.20;65.70;;;18.58;47.58;100188.09;10357172;28;96600;-88
2022/09/02 08:36:56;;;;;;;3.55;0.90;;;20.30;66.10;;;18.63;46.88;100179.38;10356875;28;96742;-87
2022/09/02 08:42:38;;;;;;;2.80;0.90;;;20.30;65.20;;;18.71;46.53;100176.41;10362254;28;96587;-87
2022/09/02 08:47:48;;;;;;;2.35;1.00;;;20.30;64.70;;;18.84;46.82;100172.81;10346014;28;98471;-87
2022/09/02 08:53:12;;;;;;;4.47;0.90;;;20.50;65.50;;;19.07;48.80;100172.13;10373531;28;97416;-88
2022/09/02 08:58:19;;;;;;;2.88;0.82;;;20.60;66.70;;;19.20;46.52;100170.13;10371378;28;96553;-87
2022/09/02 09:03:40;;;;;;;1.50;0.70;;;20.90;65.60;;;19.25;46.63;100174.81;10338653;28;97685;-87
2022/09/02 09:09:09;;;;;;;3.08;0.90;;;20.90;64.90;;;19.35;47.43;100160.81;10355435;28;96609;-88
2022/09/02 09:14:23;;;;;;;4.00;0.93;;;21.00;65.60;;;19.41;47.48;100170.69;10373379;28;96378;-87
2022/09/02 09:19:58;;;;;;;2.90;0.90;;;21.10;65.80;;;19.45;47.40;100167.34;10339183;28;96648;-88
2022/09/02 09:25:06;;;;;;;3.40;1.10;;;21.10;65.60;;;19.52;47.28;100169.94;10354974;28;96676;-88
2022/09/02 09:30:10;;;;;;;3.38;0.95;;;21.20;65.50;;;19.66;47.38;100159.84;10340277;28;96453;-87
2022/09/02 09:35:18;;;;;;;2.70;0.75;;;21.30;65.60;;;19.68;45.32;100155.06;10340799;28;96500;-88
2022/09/02 09:40:32;;;;;;;3.25;0.98;;;21.40;63.70;;;19.92;46.47;100148.69;10354304;28;96632;-87
2022/09/02 09:45:36;;;;;;;4.05;1.25;;;21.50;64.60;;;20.24;46.50;100153.78;10340285;28;96732;-87
2022/09/02 09:50:39;;;;;;;1.60;0.70;;;21.80;64.80;;;20.54;46.48;100140.25;10374525;28;96506;-87
2022/09/02 09:56:06;;;;;;;1.38;0.80;;;22.10;64.70;;;20.68;45.63;100127.31;10357383;28;97799;-87
2022/09/02 10:01:33;;;;;;;4.43;1.05;;;22.30;63.80;;;20.70;43.72;100133.31;10378316;28;97595;-89
2022/09/02 10:06:43;;;;;;;1.58;0.77;;;22.40;62.00;;;20.77;44.47;100123.22;10361200;28;96472;-88
2022/09/02 10:12:05;;;;;;;2.90;0.90;;;22.50;62.70;;;20.97;44.37;100126.34;10360209;28;97022;-87
2022/09/02 10:17:30;;;;;;;3.80;1.10;;;22.70;62.70;;;21.08;43.97;100121.97;10362521;28;96621;-88
2022/09/02 10:22:35;;;;;;;1.77;0.90;;;22.80;61.60;;;21.08;43.04;100114.69;10376866;28;99104;-88
2022/09/02 10:28:22;;;;;;;5.45;1.05;;;22.90;60.70;;;21.07;44.17;100121.16;10379548;28;96450;-88
2022/09/02 10:34:07;;;;;;;5.35;1.25;;;22.80;61.50;;;21.16;44.31;100123.47;10375526;28;96631;-86
2022/09/02 10:39:15;;;;;;;2.25;1.00;;;22.90;61.90;;;21.24;43.61;100120.41;10344623;28;99134;-86
2022/09/02 10:45:01;;;;;;;3.20;0.88;;;23.00;61.40;;;21.31;43.95;100129.25;10359332;28;97325;-85
2022/09/02 10:50:19;;;;;;;2.53;1.10;;;23.00;61.60;;;21.31;43.57;100124.66;10387815;28;96631;-87
2022/09/02 10:55:57;;;;;;;2.60;0.88;;;23.10;61.40;;;21.32;43.51;100125.47;10365099;28;97843;-87
2022/09/02 11:01:01;;;;;;;4.40;0.90;;;23.10;60.90;;;21.34;44.00;100123.34;10376540;28;96519;-87
2022/09/02 11:06:21;;;;;;;3.92;1.23;;;23.10;61.10;;;21.30;43.69;100119.50;10343696;28;96539;-87
2022/09/02 11:11:39;;;;;;;1.88;0.80;;;23.10;61.20;;;21.35;44.34;100120.41;10350730;28;97491;-87
2022/09/02 11:17:15;;;;;;;1.52;0.95;;;23.10;61.50;;;21.50;43.72;100117.16;10360697;28;96454;-87
2022/09/02 11:22:39;;;;;;;3.83;1.25;;;23.20;61.50;;;21.55;42.81;100114.56;10373372;28;98459;-88
2022/09/02 11:27:55;;;;;;;2.83;1.13;;;23.20;60.20;;;21.56;42.57;100109.97;10358919;28;98217;-87
2022/09/02 11:33:14;;;;;;;2.75;1.13;;;23.30;59.80;;;21.59;42.49;100098.66;10359467;28;97353;-87
2022/09/02 11:38:35;;;;;;;;;;;23.30;59.70;;;21.61;42.19;100100.09;10360745;28;96431;-88
2022/09/02 11:44:10;;;;;;;2.75;1.00;;;23.40;59.40;;;21.72;42.30;100095.69;10359372;28;96485;-87
2022/09/02 11:49:50;;;;;;;3.20;1.20;;;23.40;59.60;;;21.91;41.86;100097.09;10358645;28;96600;-87
2022/09/02 11:55:26;;;;;;;2.22;1.05;;;23.60;58.90;;;22.34;41.57;100086.69;10373189;28;98665;-88
2022/09/02 12:00:54;;;;;;;4.35;1.17;;;24.00;58.70;;;22.93;41.00;100073.47;10323713;28;96475;-88
2022/09/02 12:06:12;;;;;;;1.67;0.80;;;24.60;58.40;;;23.26;40.45;100077.09;10355151;28;98106;-88
2022/09/02 12:11:41;;;;;;;1.45;0.93;;;25.00;57.10;;;23.40;39.24;100072.91;10356727;28;96667;-88
2022/09/02 12:17:03;;;;;;;4.10;1.20;;;25.20;56.50;;;23.28;38.41;100074.97;10359206;28;96620;-88
2022/09/02 12:22:15;;;;;;;4.28;1.10;;;25.10;55.40;;;23.23;39.06;100075.72;10366288;28;97283;-88
2022/09/02 12:27:35;;;;;;;3.63;1.00;;;25.10;55.70;;;23.28;39.49;100067.66;10372636;28;97280;-88
2022/09/02 12:32:51;;;;;;;3.10;0.93;;;25.20;56.10;;;23.28;38.99;100062.22;10352999;28;96675;-88
2022/09/02 12:38:22;;;;;;;2.65;1.10;;;25.30;55.60;;;23.19;39.26;100061.84;10370652;28;96743;-88
2022/09/02 12:43:29;;;;;;;2.80;1.20;;;25.10;55.80;;;23.15;38.47;100055.31;10373820;28;97062;-88
2022/09/02 12:48:44;;;;;;;4.07;1.08;;;25.10;54.80;;;23.24;39.82;100055.66;10327919;28;96553;-88
2022/09/02 12:53:50;;;;;;;4.00;0.90;;;25.10;55.90;;;23.35;39.68;100049.28;10359466;28;98615;-89
2022/09/02 12:58:54;;;;;;;2.83;1.00;;;25.20;56.10;;;23.34;38.67;100046.81;10361828;28;96627;-88
2022/09/02 13:04:15;;;;;;;4.22;1.23;;;25.10;55.20;;;23.17;38.84;100042.31;10345688;28;96548;-89
2022/09/02 13:09:46;;;;;;;16.42;1.70;;;24.90;55.50;;;23.15;40.16;100043.63;10375534;28;97599;-88
2022/09/02 13:15:04;;;;;;;2.47;1.10;;;24.90;56.60;;;23.12;39.76;100044.97;10358829;28;96626;-91
2022/09/02 13:20:31;;;;;;;3.72;1.10;;;24.80;56.20;;;23.16;40.04;100039.88;10374448;28;96494;-91
2022/09/02 13:26:06;;;;;;;10.70;1.20;;;24.90;56.30;;;23.19;39.53;100036.63;10317622;28;96816;-92
2022/09/02 13:31:26;;;;;;;4.32;1.20;;;24.90;56.00;;;23.14;38.99;100036.56;10352531;28;96589;-91
2022/09/02 13:36:50;;;;;;;4.63;1.42;;;24.90;55.60;;;23.06;39.85;100039.75;10336996;28;97429;-91
2022/09/02 13:41:54;;;;;;;6.28;1.77;;;24.80;55.90;;;23.03;39.48;100034.81;10324439;28;96728;-91
2022/09/02 13:47:14;;;;;;;7.60;1.52;;;24.80;55.70;;;22.93;39.91;100030.94;10339625;28;96660;-91
2022/09/02 13:52:23;;;;;;;6.63;1.65;;;24.70;56.70;;;22.78;39.90;100025.28;10332148;28;97745;-91
2022/09/02 13:58:07;;;;;;;13.05;2.00;;;24.60;56.20;;;22.68;41.45;100023.28;10341966;28;96706;-91
2022/09/02 14:03:16;;;;;;;10.68;1.48;;;24.40;57.10;;;22.50;40.79;100020.88;10359288;28;96550;-91
2022/09/02 14:08:25;;;;;;;8.00;1.73;;;24.30;57.00;;;22.33;40.82;100018.22;10338103;28;97421;-91
2022/09/02 14:13:29;;;;;;;2.80;1.27;;;24.10;57.00;;;22.37;41.60;100010.38;10354395;28;96706;-91
2022/09/02 14:18:32;;;;;;;8.73;1.40;;;24.10;57.20;;;22.50;41.65;100020.88;10338930;28;96683;-92
2022/09/02 14:23:39;;;;;;;1.92;1.00;;;24.20;57.70;;;22.63;41.53;100016.97;10359819;28;97374;-91
2022/09/02 14:28:49;;;;;;;2.08;0.98;;;24.30;57.10;;;22.65;41.63;100029.19;10374448;28;97698;-89
2022/09/02 14:33:52;;;;;;;6.63;0.93;;;24.30;57.80;;;22.54;41.63;100027.41;10346408;28;96798;-90
2022/09/02 14:39:08;;;;;;;3.00;1.15;;;24.20;58.00;;;22.43;41.44;100020.22;10360693;28;96634;-90
2022/09/02 14:44:21;;;;;;;2.30;1.23;;;24.10;57.60;;;22.35;41.53;100016.06;10346736;28;96616;-91
2022/09/02 14:49:31;;;;;;;9.73;1.38;;;24.10;58.00;;;22.35;41.06;100016.06;10345963;28;96602;-92
2022/09/02 14:54:44;;;;;;;9.93;1.38;;;24.10;57.30;;;22.38;42.45;100020.19;10368568;28;97728;-91
2022/09/02 14:59:48;;;;;;;3.47;1.35;;;24.10;58.20;;;22.41;42.29;100027.78;10364035;28;99281;-91
2022/09/02 15:04:54;;;;;;;8.07;1.55;;;24.10;57.80;;;22.40;41.98;100026.97;10345099;28;96686;-92
2022/09/02 15:09:57;;;;;;;3.97;1.23;;;24.10;57.70;;;22.33;41.68;100023.63;10359776;28;96707;-91
2022/09/02 15:15:00;;;;;;;7.97;1.50;;;24.10;57.70;;;22.26;41.73;100024.88;10349277;28;96776;-92
2022/09/02 15:20:05;;;;;;;9.38;1.73;;;24.00;57.60;;;22.17;41.62;100025.28;10360852;28;96635;-90
2022/09/02 15:25:13;;;;;;;2.25;1.10;;;23.90;57.40;;;22.10;42.51;100024.63;10360799;28;97728;-92
2022/09/02 15:30:16;;;;;;;2.75;1.45;;;23.90;58.50;;;22.07;43.69;100021.56;10363213;28;96906;-92
2022/09/02 15:35:19;;;;;;;2.45;1.35;;;23.80;59.00;;;21.98;44.13;100020.34;10350967;28;97113;-89
2022/09/02 15:40:23;;;;;;;1.80;1.20;;;23.70;59.60;;;21.87;43.74;100030.19;10388684;28;96615;-92
2022/09/02 15:45:27;;;;;;;2.13;1.15;;;23.60;59.70;;;21.81;45.52;100036.59;10332966;28;99270;-92
2022/09/02 15:50:32;;;;;;;4.35;1.30;;;23.50;61.00;;;21.88;46.44;100032.66;10336210;28;96859;-92
2022/09/02 15:55:36;;;;;;;7.80;1.13;;;23.60;60.70;;;22.32;43.96;100029.28;10355976;28;96659;-92
2022/09/02 16:00:39;;;;;;;5.32;1.38;;;24.10;59.30;;;22.77;42.74;100030.97;10338263;28;98749;-93
2022/09/02 16:05:45;;;;;;;9.98;2.00;;;24.70;58.70;;;22.68;43.83;100036.81;10325753;28;96657;-92
2022/09/02 16:10:48;;;;;;;8.05;1.80;;;24.70;59.10;;;22.38;45.33;100052.66;10322720;28;97082;-93
2022/09/02 16:16:00;;;;;;;5.32;1.40;;;24.30;60.30;;;22.06;46.88;100047.00;10316065;28;98976;-90
2022/09/02 16:21:09;;;;;;;8.40;1.77;;;23.90;61.90;;;21.68;47.67;100050.44;10349502;28;97467;-92
2022/09/02 16:26:13;;;;;;;5.15;2.03;;;23.40;63.00;;;21.32;48.59;100066.81;10340132;28;99254;-90
2022/09/02 16:31:19;;;;;;;3.65;1.77;;;23.00;64.20;;;21.00;49.42;100074.56;10375507;28;96742;-91
2022/09/02 16:36:24;;;;;;;3.95;1.73;;;22.70;65.30;;;20.77;50.33;100077.31;10333130;28;97033;-90
2022/09/02 16:41:45;;;;;;;6.68;1.85;;;22.40;65.90;;;20.58;51.32;100085.56;10371702;28;96657;-89
2022/09/02 16:46:50;;;;;;;7.72;1.60;;;22.20;66.70;;;20.37;52.11;100088.78;10345277;28;96697;-90
2022/09/02 16:51:53;;;;;;;3.75;1.85;;;22.00;67.40;;;20.17;52.92;100086.44;10343320;28;96629;-91
2022/09/02 16:57:00;;;;;;;4.90;1.73;;;21.80;67.90;;;19.97;53.36;100094.88;10362776;28;96491;-91
2022/09/02 17:02:04;;;;;;;6.43;2.00;;;21.60;68.40;;;19.81;53.72;100103.63;10355345;28;96597;-90
2022/09/02 17:07:08;;;;;;;4.00;1.77;;;21.50;69.30;;;19.68;54.14;100106.53;10371778;28;96651;-91
2022/09/02 17:12:11;;;;;;;6.07;2.00;;;21.30;69.60;;;19.59;54.50;100103.31;10337647;28;96617;-90
2022/09/02 17:17:15;;;;;;;7.50;2.00;;;21.20;70.10;;;19.52;54.76;100113.34;10341196;28;96401;-91
2022/09/02 17:22:19;;;;;;;5.22;1.60;;;21.10;70.30;;;19.41;55.23;100109.53;10338116;28;96728;-90
2022/09/02 17:27:22;;;;;;;3.60;1.88;;;21.00;70.70;;;19.33;55.38;100112.56;10350210;28;97003;-91
2022/09/02 17:32:25;;;;;;;2.63;1.52;;;20.90;70.80;;;19.25;55.54;100121.78;10342207;28;98309;-92
2022/09/02 17:37:30;;;;;;;4.20;1.70;;;20.80;71.20;;;19.15;55.99;100107.19;10370174;28;99014;-93
2022/09/02 17:42:33;;;;;;;3.35;1.67;;;20.80;71.60;;;19.08;56.45;100119.94;10351932;28;98716;-92
2022/09/02 17:47:37;;;;;;;2.85;1.55;;;20.70;71.80;;;18.99;56.50;100109.44;10341794;28;98429;-93
2022/09/02 17:52:40;;;;;;;3.85;1.40;;;20.60;72.00;;;18.97;56.73;100125.00;10336457;28;96660;-92
2022/09/02 17:58:11;;;;;;;23.67;3.08;;;20.60;72.00;;;18.90;56.91;100123.44;10367507;28;99198;-92
2022/09/02 18:03:41;;;;;;;2.80;1.48;;;20.50;72.20;;;18.80;57.28;100132.03;10348677;28;98280;-92
2022/09/02 18:09:01;;;;;;;5.25;1.88;;;20.40;72.60;;;18.68;57.87;100140.03;10359689;28;97350;-92
2022/09/02 18:14:31;;;;;;;3.77;1.67;;;20.30;73.00;;;18.51;58.21;100136.22;10358524;28;96548;-92
2022/09/02 18:20:06;;;;;;;5.93;2.00;;;20.10;73.10;;;18.35;58.74;100143.00;10359927;28;97294;-91
2022/09/02 18:25:11;;;;;;;5.28;2.13;;;19.90;73.90;;;18.16;59.60;100142.09;10372142;28;96612;-90
2022/09/02 18:30:32;;;;;;;3.95;1.80;;;19.70;74.70;;;18.00;60.30;100153.41;10357404;28;96695;-91
2022/09/02 18:36:12;;;;;;;5.18;1.98;;;19.60;75.50;;;17.85;60.98;100156.38;10350900;28;96821;-91
2022/09/02 18:42:09;;;;;;;3.97;2.15;;;19.40;76.10;;;17.75;61.78;100153.34;10373257;28;97369;-91
2022/09/02 18:47:27;;;;;;;3.78;1.70;;;19.30;76.70;;;17.62;62.63;100145.31;10346728;28;97962;-90
2022/09/02 18:52:31;;;;;;;3.63;1.98;;;19.20;77.70;;;17.50;63.42;100147.03;10355314;28;97094;-91
2022/09/02 18:58:01;;;;;;;4.10;2.70;;;19.10;78.30;;;17.34;63.80;100146.50;10357704;28;96665;-90
2022/09/02 19:03:05;;;;;;;5.05;2.00;;;18.90;79.20;;;17.20;64.53;100152.13;10337009;28;97040;-91
2022/09/02 19:08:32;;;;;;;3.88;2.08;;;18.80;80.20;;;17.08;65.12;100152.78;10339481;28;96658;-90
2022/09/02 19:14:00;;;;;;;3.10;1.60;;;18.70;80.80;;;16.97;65.88;100153.44;10347775;28;97316;-89
2022/09/02 19:19:05;;;;;;;4.38;2.20;;;18.50;81.20;;;16.88;66.05;100168.13;10357568;28;96744;-90
2022/09/02 19:24:13;;;;;;;4.50;2.17;;;18.40;81.60;;;16.78;66.60;100162.34;10353440;28;97523;-90
2022/09/02 19:29:17;;;;;;;3.28;1.48;;;18.30;82.10;;;16.72;66.58;100171.22;10337577;28;97903;-90
2022/09/02 19:34:34;;;;;;;6.85;2.03;;;18.20;82.50;;;16.57;67.36;100174.94;10343127;28;98133;-89
2022/09/02 19:39:37;;;;;;;3.80;2.78;;;18.10;83.30;;;16.45;67.83;100178.47;10327979;28;96746;-90
2022/09/02 19:44:40;;;;;;;3.88;2.60;;;17.90;83.80;;;16.34;68.46;100179.88;10362959;28;96613;-90
2022/09/02 19:49:43;;;;;;;5.25;2.40;;;17.80;84.30;;;16.28;68.56;100181.53;10342447;28;96555;-90
2022/09/02 19:54:46;;;;;;;6.40;2.67;;;17.80;84.80;;;16.17;69.08;100179.47;10327277;28;96623;-90
2022/09/02 19:59:50;;;;;;;3.80;2.28;;;17.70;85.30;;;16.05;69.19;100171.19;10346874;28;96592;-89
2022/09/02 20:04:53;;;;;;;4.55;2.40;;;17.60;85.30;;;16.00;69.50;100167.47;10355796;28;97438;-90
2022/09/02 20:09:56;;;;;;;8.57;2.83;;;17.60;85.70;;;15.95;69.72;100180.66;10358865;28;96534;-90
2022/09/02 20:14:59;;;;;;;4.95;2.58;;;17.50;86.70;;;15.85;70.04;100169.53;10336524;28;96981;-91
2022/09/02 20:20:18;;;;;;;5.55;2.20;;;17.40;86.70;;;15.78;70.44;100185.59;10342725;28;96600;-91
2022/09/02 20:25:34;;;;;;;3.55;2.28;;;17.30;87.10;;;15.70;70.76;100183.91;10342122;28;96613;-90
2022/09/02 20:30:46;;;;;;;5.20;2.08;;;17.20;87.50;;;15.63;70.96;100182.22;10357658;28;97801;-90
2022/09/02 20:36:24;;;;;;;5.55;2.30;;;17.20;87.90;;;15.61;71.10;100194.97;10357856;28;96566;-90
2022/09/02 20:42:15;;;;;;;6.22;2.15;;;17.10;88.30;;;15.51;71.44;100195.34;10353315;28;97657;-91
2022/09/02 20:47:23;;;;;;;3.55;2.03;;;17.10;88.50;;;15.49;71.94;100192.03;10368723;28;96753;-90
2022/09/02 20:53:16;;;;;;;3.78;1.98;;;17.10;88.90;;;15.44;72.16;100194.50;10336968;28;96646;-91
2022/09/02 20:58:59;;;;;;;5.18;2.20;;;17.00;89.30;;;15.39;72.35;100196.94;10278344;28;96745;-90
2022/09/02 21:04:23;;;;;;;2.85;2.00;;;17.00;89.50;;;15.33;72.51;100187.84;10354997;28;96586;-90
2022/09/02 21:09:58;;;;;;;3.65;2.25;;;16.90;89.80;;;15.30;72.87;100193.63;10350150;28;96719;-91
2022/09/02 21:15:08;;;;;;;4.97;2.47;;;16.90;90.10;;;15.26;72.86;100198.53;10375063;28;96902;-91
2022/09/02 21:20:44;;;;;;;5.07;2.20;;;16.80;90.20;;;15.20;72.83;100193.97;10355628;28;96717;-91